Paia, Hawaii
Current Conditions -  °F | °C
As of 4:54 PM on Saturday 22 Nov 2014 (Local Time) from PHOG Reporting Station
Few Clouds Few Clouds  
Wind Chill: 82°   Ceiling: Unl
Heat Index: 84°   Visibility: 10mi
Dew Point: 66°   Wind: 6mph
Humidity: 58%   Direction: 50°NE
Pressure: 29.97"   Gusts: NA
Location:  20.89°N, 156.36°W
Report Text: PHOG 230254Z 05005KT 10SM FEW055 28/19 A2997 RMK AO2 SLP152 T02780189 53001
Loading
Personal Weather Stations






























Interactive Weather Map New forecast layout! Learn more

10-Day Weather Forecast

Advertisements
Track Severe Weather on mobile